x

Halibut Bank (46146) Wave Buoy

12:00 - Thu 30th Jun 2016 All times are PDT. -7 hours from GMT.

  • Sig Wave height 2.3ft
  • Peak Period 4s
  • Wind
    18mph, 20mph gusts
  • Sea Temp 65°f
  • Aire Temp 62°f
  • Sea Pressure 1019.5mb
  • Halibut Bank
  • Halibut Bank

More Historic Weather Station data

Upgrade to MSW Pro to gain access to the past 30 days of data for over 8000 Wavebouys and Weather Stations around the globe.

Join Pro

Comparision Forecast

View Surf forecast
   
jue 06/30 12:00 2.5ft 4s 18 20 mph 1019.5mb 65f 62f
mié 06/29 11:00 2.5ft 4s 18 20 mph 1019.3mb 66f 63f
10:00 2ft 3s 18 20 mph 1018.7mb 67f 65f
9:00 1.3ft 3s 16 18 mph 1018.7mb 67f 66f
8:00 1.3ft 3s 13
mph
1018.6mb 68f 67f
7:00 1ft 2s 11 13 mph 1018.5mb 69f 68f
6:00 0.7ft 2s 11 13 mph 1018.8mb 69f 67f
5:00 0.7ft 2s 9 11 mph 1019.2mb 69f 66f
4:00 0.7ft 2s 9
mph
1019.6mb 69f 65f
3:00 0.7ft 2s 9
mph
1020.1mb 69f 65f
2:00 0.7ft 3s 7 9 mph 1020.6mb 69f 65f
1:00 1ft 4s 7
mph
1021mb 68f 64f
12:00 1ft 2s 7 9 mph 1021.5mb 68f 63f
11:00 1ft 3s 7 9 mph 1021.8mb 67f 63f
10:00 1ft 3s 9
mph
1021.9mb 67f 63f
9:00 1.3ft 3s 11 13 mph 1021.9mb 67f 63f
8:00 1.3ft 3s 11 13 mph 1021.6mb 67f 63f
7:00 1.3ft 3s 13 16 mph 1021.5mb 66f 62f
6:00 1.3ft 3s 11 13 mph 1021.1mb 67f 63f
5:00 1.3ft 3s 11 13 mph 1020.7mb 67f 63f
4:00 1ft 3s 13
mph
1020.3mb 68f 64f
3:00 1ft 3s 11 13 mph 1020.1mb 69f 65f
2:00 1ft 3s 9 11 mph 1019.9mb 69f 66f
1:00 0.7ft 3s 11 13 mph 1019.6mb 69f 66f
12:00 0.7ft 3s 9
mph
1019.2mb 69f 67f
mar 06/28 11:00 0.7ft 2s 9
mph
1019.1mb 69f 68f
10:00 0.7ft 3s 9
mph
1019mb 70f 68f
9:00 0.3ft 4s 7 9 mph 1018.8mb 71f 68f
8:00 0.3ft 4s 7 9 mph 1018.6mb 71f 69f
7:00 0.7ft 4s 2 4 mph 1018.8mb 71f 68f
6:00 0.7ft 4s 4
mph
1018.8mb 72f 68f
5:00 0.7ft 4s 2 4 mph 1019.4mb 71f 67f
4:00 0.7ft 3s 4 7 mph 1020.2mb 72f 66f
3:00 0.7ft 3s 2 4 mph 1020.6mb 71f 67f
2:00 0.7ft 3s 2 4 mph 1021.2mb 71f 66f
1:00 1ft 3s 4
mph
1021.5mb 70f 65f
12:00 1ft 3s 2 4 mph 1021.9mb 69f 65f
11:00 1ft 3s 2 4 mph 1022.1mb 67f 65f
10:00 1.3ft 3s 9 11 mph 1022.2mb 66f 65f
9:00 1.6ft 3s 13 16 mph 1022.2mb 66f 63f
8:00 1.3ft 3s 16 18 mph 1022.1mb 66f 62f
7:00 1ft 3s 11 13 mph 1021.8mb 66f 64f
6:00 1ft 3s 9 11 mph 1021.3mb 66f 65f
5:00 1ft 3s 4 7 mph 1021.1mb 66f 66f
4:00 0.3ft 3s 4
mph
1020.9mb 66f 66f
3:00 0.3ft 3s 4 7 mph 1020.6mb 67f 66f
2:00 0.3ft 5s 4
mph
1020.4mb 67f 66f
1:00 0.3ft 3s 4
mph
1020.1mb 67f 67f
12:00 0.3ft 3s 9
mph
1019.7mb 67f 67f
lun 06/27 11:00 0.3ft 6s 4 7 mph 1019.4mb 67f 67f
10:00 0.3ft 3s 4 7 mph 1019.2mb 67f 67f
9:00 0.3ft 6s 2 4 mph 1019mb 68f 67f
8:00 0.3ft 6s 4
mph
1018.9mb 68f 68f
7:00 0.7ft 3s 4
mph
1018.7mb 68f 68f
6:00 0.7ft 3s  -  mph 1019.1mb 68f 70f
5:00 0.7ft 3s 4
mph
1019.4mb 66f 68f
4:00 0.7ft 3s 7
mph
1019.8mb 66f 67f
3:00 1ft 3s 9
mph
1020.1mb 65f 66f
2:00 1ft 3s 9
mph
1020.3mb 65f 65f
1:00 1.3ft 3s 9 11 mph 1020.5mb 65f 64f
12:00 1.3ft 3s 13 16 mph 1020.8mb 64f 64f
11:00 1.6ft 3s 13 16 mph 1020.8mb 64f 63f
10:00 1.6ft 4s 13 16 mph 1021.1mb 64f 63f
9:00 1.6ft 3s 16 18 mph 1021mb 64f 63f
8:00 1.3ft 3s 13 18 mph 1021.1mb 64f 63f
7:00 1.3ft 3s 13 16 mph 1020.9mb 64f 64f
6:00 1.3ft 3s 11 13 mph 1020.5mb 64f 64f
5:00 1ft 3s 13 18 mph 1020.1mb 64f 64f
4:00 0.7ft 2s 13
mph
1020mb 64f 65f
3:00 0.3ft 2s 9 11 mph 1020mb 64f 64f
2:00 0.3ft 2s 7
mph
1019.6mb 64f 64f
1:00 0.3ft 2s 7 9 mph 1019.5mb 64f 65f
12:00 0.7ft 2s 7 9 mph 1019.5mb 64f 66f
dom 06/26 11:00 0.7ft 2s 9
mph
1019.3mb 63f 66f
10:00 0.7ft 2s 13
mph
1019.4mb 64f 67f
9:00 0.7ft 2s 11 13 mph 1019.5mb 64f 66f
8:00 0.7ft 2s 11 13 mph 1019.9mb 64f 67f
7:00 1ft 6s 11 13 mph 1020.2mb 64f 67f
6:00 0.7ft 3s 9 11 mph 1020.8mb 65f 67f
5:00 1ft 3s 11
mph
1021.3mb 65f 65f
4:00 1.3ft 3s 11 13 mph 1021.7mb 64f 65f
3:00 1.3ft 3s 11
mph
1022.4mb 63f 65f
2:00 1.6ft 3s 13 18 mph 1022.8mb 62f 63f
1:00 1.6ft 3s 16 18 mph 1023mb 62f 62f
12:00 1.6ft 3s 18 20 mph 1023.4mb 62f 61f
11:00 1.3ft 3s 13 16 mph 1023.8mb 61f 61f
10:00 1.6ft 4s 13 18 mph 1024.3mb 61f 60f
9:00 1.6ft 4s 16 18 mph 1024.5mb 62f 60f